createdAt,value
2023-03-05T00:01:11.378Z,10.65
2023-03-05T00:03:38.185Z,8.88
2023-03-05T00:06:04.980Z,11.40
2023-03-05T00:08:31.643Z,6.75
2023-03-05T00:11:02.022Z,7.32
2023-03-05T00:13:28.576Z,9.73
2023-03-05T00:15:55.222Z,10.77
2023-03-05T00:18:21.981Z,7.97
2023-03-05T00:20:48.605Z,9.18
2023-03-05T00:23:15.029Z,10.95
2023-03-05T00:25:41.526Z,14.00
2023-03-05T00:28:08.604Z,8.88
2023-03-05T00:30:35.762Z,10.00
2023-03-05T00:33:02.161Z,10.65
2023-03-05T00:35:28.589Z,11.32
2023-03-05T00:37:55.174Z,13.57
2023-03-05T00:40:21.718Z,12.63
2023-03-05T00:42:48.176Z,17.48
2023-03-05T00:45:14.556Z,12.52
2023-03-05T00:47:40.919Z,12.68
2023-03-05T00:50:07.840Z,12.93
2023-03-05T00:52:34.210Z,15.00
2023-03-05T00:55:00.587Z,12.68
2023-03-05T00:57:26.972Z,14.73
2023-03-05T00:59:53.348Z,12.32
2023-03-05T01:02:19.684Z,12.55
2023-03-05T01:04:47.175Z,8.35
2023-03-05T01:07:13.606Z,10.30
2023-03-05T01:09:39.946Z,13.30
2023-03-05T01:12:06.585Z,10.80
2023-03-05T01:14:34.535Z,9.80
2023-03-05T01:17:00.899Z,13.20
2023-03-05T01:19:27.397Z,12.02
2023-03-05T01:21:54.950Z,12.25
2023-03-05T01:24:22.085Z,12.25
2023-03-05T01:26:49.307Z,6.75
2023-03-05T01:29:15.883Z,11.88
2023-03-05T01:31:42.333Z,14.23
2023-03-05T01:34:08.737Z,11.88
2023-03-05T01:36:35.159Z,12.40
2023-03-05T01:39:02.591Z,12.38
2023-03-05T01:41:29.029Z,19.67
2023-03-05T01:43:55.437Z,17.00
2023-03-05T01:46:48.491Z,8.30
2023-03-05T01:49:27.764Z,14.02
2023-03-05T01:52:17.946Z,11.68
2023-03-05T01:54:57.356Z,10.95
2023-03-05T01:57:28.207Z,21.02
2023-03-05T02:00:00.660Z,14.43
2023-03-05T02:02:27.108Z,15.52
2023-03-05T02:05:03.682Z,11.27
2023-03-05T02:07:31.162Z,14.25
2023-03-05T02:09:57.590Z,19.55
2023-03-05T02:12:23.991Z,9.07
2023-03-05T02:14:58.339Z,16.13
2023-03-05T02:17:27.504Z,13.65
2023-03-05T02:19:56.958Z,9.30
2023-03-05T02:22:24.288Z,11.35
2023-03-05T02:24:51.196Z,17.92
2023-03-05T02:27:18.026Z,16.52
2023-03-05T02:29:46.250Z,9.50
2023-03-05T02:32:13.914Z,16.52
2023-03-05T02:34:40.425Z,16.27
2023-03-05T02:37:09.187Z,13.07
2023-03-05T02:39:36.292Z,15.68
2023-03-05T02:42:02.876Z,14.52
2023-03-05T02:44:29.226Z,11.95
2023-03-05T02:46:55.585Z,15.55
2023-03-05T02:49:21.941Z,9.45
2023-03-05T02:51:48.314Z,17.70
2023-03-05T02:54:14.653Z,14.82
2023-03-05T02:56:41.867Z,19.98
2023-03-05T02:59:08.300Z,16.90
2023-03-05T03:01:34.799Z,12.02
2023-03-05T03:04:01.247Z,14.30
2023-03-05T03:06:27.673Z,13.35
2023-03-05T03:08:54.056Z,12.90
2023-03-05T03:11:21.314Z,16.58
2023-03-05T03:13:47.722Z,12.05
2023-03-05T03:16:15.243Z,5.75
2023-03-05T03:18:41.734Z,9.70
2023-03-05T03:21:08.151Z,11.57
2023-03-05T03:23:34.914Z,12.45
2023-03-05T03:26:01.303Z,18.75
2023-03-05T03:28:27.721Z,6.55
2023-03-05T03:30:54.147Z,13.93
2023-03-05T03:33:20.529Z,13.27
2023-03-05T03:35:46.988Z,8.30
2023-03-05T03:38:13.796Z,10.52
2023-03-05T03:40:41.736Z,14.48
2023-03-05T03:43:08.302Z,9.27
2023-03-05T03:45:34.657Z,12.25
2023-03-05T03:48:01.026Z,9.85
2023-03-05T03:50:27.406Z,10.00
2023-03-05T03:52:53.746Z,10.80
2023-03-05T03:55:20.091Z,9.02
2023-03-05T03:57:46.503Z,16.63
2023-03-05T04:00:13.228Z,18.20
2023-03-05T04:02:40.037Z,12.45
2023-03-05T04:05:06.956Z,14.55
2023-03-05T04:07:33.331Z,13.18
2023-03-05T04:09:59.707Z,12.57
2023-03-05T04:12:26.146Z,19.27
2023-03-05T04:14:52.587Z,15.35
2023-03-05T04:17:18.983Z,11.57
2023-03-05T04:19:45.596Z,13.02
2023-03-05T04:22:14.297Z,14.48
2023-03-05T04:24:41.374Z,21.67
2023-03-05T04:27:07.767Z,13.27
2023-03-05T04:29:34.553Z,12.68
2023-03-05T04:32:01.710Z,15.00
2023-03-05T04:34:28.210Z,11.23
2023-03-05T04:36:54.860Z,8.48
2023-03-05T04:39:21.431Z,17.38
2023-03-05T04:41:48.310Z,10.45
2023-03-05T04:44:14.722Z,17.00
2023-03-05T04:46:41.263Z,12.50
2023-03-05T04:49:07.697Z,14.10
2023-03-05T04:51:34.073Z,12.45
2023-03-05T04:54:00.495Z,14.15
2023-03-05T04:56:26.910Z,17.38
2023-03-05T04:58:53.305Z,17.70
2023-03-05T05:01:19.742Z,14.23
2023-03-05T05:03:46.200Z,19.27
2023-03-05T05:06:12.604Z,16.42
2023-03-05T05:08:39.003Z,15.55
2023-03-05T05:11:07.355Z,13.05
2023-03-05T05:13:34.012Z,10.48
2023-03-05T05:16:00.456Z,11.85
2023-03-05T05:18:27.081Z,14.20
2023-03-05T05:20:53.481Z,9.15
2023-03-05T05:23:19.850Z,14.93
2023-03-05T05:25:46.257Z,11.15
2023-03-05T05:28:12.837Z,11.40
2023-03-05T05:30:39.282Z,15.00
2023-03-05T05:33:05.678Z,13.32
2023-03-05T05:35:32.086Z,12.98
2023-03-05T05:37:58.501Z,12.05
2023-03-05T05:40:24.951Z,15.35
2023-03-05T05:42:51.339Z,15.73
2023-03-05T05:45:17.845Z,22.85
2023-03-05T05:47:44.336Z,20.27
2023-03-05T05:50:11.412Z,22.83
2023-03-05T05:52:37.830Z,15.27
2023-03-05T05:55:04.583Z,23.92
2023-03-05T05:57:31.010Z,20.45
2023-03-05T05:59:57.455Z,15.25
2023-03-05T06:02:23.978Z,21.80
2023-03-05T06:04:50.395Z,23.77
2023-03-05T06:07:16.784Z,15.68
2023-03-05T06:09:43.206Z,23.20
2023-03-05T06:12:09.595Z,21.73
2023-03-05T06:14:35.984Z,17.63
2023-03-05T06:17:02.389Z,18.30
2023-03-05T06:19:28.788Z,18.73
2023-03-05T06:21:55.170Z,21.33
2023-03-05T06:24:22.217Z,21.70
2023-03-05T06:26:49.184Z,19.05
2023-03-05T06:29:16.531Z,23.20
2023-03-05T06:31:42.915Z,21.05
2023-03-05T06:34:10.078Z,19.75
2023-03-05T06:36:36.455Z,17.35
2023-03-05T06:39:04.499Z,22.17
2023-03-05T06:41:32.475Z,16.55
2023-03-05T06:44:00.352Z,18.15
2023-03-05T06:46:28.780Z,20.20
2023-03-05T06:48:57.143Z,15.20
2023-03-05T06:51:28.020Z,11.40
2023-03-05T06:53:55.121Z,20.65
2023-03-05T06:56:22.199Z,13.00
2023-03-05T06:58:50.794Z,13.18
2023-03-05T07:01:18.363Z,12.90
2023-03-05T07:03:44.982Z,11.73
2023-03-05T07:06:14.421Z,10.43
2023-03-05T07:08:40.969Z,14.85
2023-03-05T07:11:19.426Z,10.73
2023-03-05T07:13:47.720Z,15.73
2023-03-05T07:16:21.505Z,16.17
2023-03-05T07:18:48.863Z,18.80
2023-03-05T07:21:18.457Z,16.70
2023-03-05T07:23:44.904Z,15.38
2023-03-05T07:26:12.213Z,13.45
2023-03-05T07:28:38.647Z,20.73
2023-03-05T07:31:08.255Z,17.65
2023-03-05T07:33:37.032Z,18.05
2023-03-05T07:36:04.834Z,22.48
2023-03-05T07:38:31.849Z,16.98
2023-03-05T07:41:05.685Z,20.02
2023-03-05T07:43:32.085Z,22.60
2023-03-05T07:45:58.582Z,26.13
2023-03-05T07:48:25.300Z,27.27
2023-03-05T07:51:03.080Z,22.23
2023-03-05T07:53:29.453Z,19.35
2023-03-05T07:55:55.842Z,18.10
2023-03-05T07:58:22.236Z,21.98
2023-03-05T08:00:48.930Z,17.25
2023-03-05T08:03:15.368Z,24.42
2023-03-05T08:05:42.468Z,20.55
2023-03-05T08:08:09.494Z,17.00
2023-03-05T08:10:36.560Z,19.80
2023-03-05T08:13:03.218Z,19.48
2023-03-05T08:15:31.529Z,26.15
2023-03-05T08:17:58.558Z,20.33
2023-03-05T08:20:25.064Z,21.80
2023-03-05T08:22:51.639Z,19.88
2023-03-05T08:25:18.031Z,20.55
2023-03-05T08:27:45.919Z,20.73
2023-03-05T08:30:18.426Z,21.65
2023-03-05T08:32:45.011Z,18.02
2023-03-05T08:35:11.777Z,19.65
2023-03-05T08:37:38.234Z,25.58
2023-03-05T08:40:05.208Z,14.95
2023-03-05T08:42:31.731Z,18.17
2023-03-05T08:44:58.301Z,18.52
2023-03-05T08:47:26.564Z,18.13
2023-03-05T08:49:55.541Z,16.58
2023-03-05T08:52:22.541Z,16.42
2023-03-05T08:54:49.127Z,21.75
2023-03-05T08:57:15.528Z,23.27
2023-03-05T08:59:41.984Z,18.48
2023-03-05T09:02:11.271Z,16.80
2023-03-05T09:04:37.732Z,21.70
2023-03-05T09:07:04.279Z,16.42
2023-03-05T09:09:32.584Z,25.00
2023-03-05T09:11:59.844Z,19.65
2023-03-05T09:14:28.270Z,15.98
2023-03-05T09:16:55.878Z,15.90
2023-03-05T09:19:22.371Z,15.88
2023-03-05T09:21:48.761Z,14.63
2023-03-05T09:24:15.181Z,12.88
2023-03-05T09:26:42.234Z,12.70
2023-03-05T09:29:09.157Z,12.60
2023-03-05T09:31:36.757Z,15.40
2023-03-05T09:34:04.185Z,15.20
2023-03-05T09:36:31.613Z,14.80
2023-03-05T09:38:58.541Z,11.60
2023-03-05T09:41:31.145Z,9.10
2023-03-05T09:44:00.497Z,10.23
2023-03-05T09:46:29.819Z,10.52
2023-03-05T09:49:16.103Z,8.25
2023-03-05T09:51:46.494Z,11.38
2023-03-05T09:54:26.759Z,9.07
2023-03-05T09:56:58.365Z,13.65
2023-03-05T09:59:47.918Z,10.10
2023-03-05T10:02:21.217Z,7.50
2023-03-05T10:05:13.599Z,11.13
2023-03-05T10:07:42.077Z,7.95
2023-03-05T10:10:24.632Z,6.18
2023-03-05T10:12:52.682Z,6.15
2023-03-05T10:15:32.219Z,6.45
2023-03-05T10:17:58.532Z,7.65
2023-03-05T10:20:44.611Z,7.60
2023-03-05T10:23:24.526Z,9.32
2023-03-05T10:26:04.303Z,5.88
2023-03-05T10:28:53.837Z,5.40
2023-03-05T10:31:21.497Z,6.05
2023-03-05T10:33:53.567Z,3.88
2023-03-05T10:36:19.825Z,6.05
2023-03-05T10:39:09.343Z,4.13
2023-03-05T10:41:49.519Z,3.95
2023-03-05T10:44:40.713Z,5.75
2023-03-05T10:47:20.682Z,7.90
2023-03-05T10:49:50.858Z,2.42
2023-03-05T10:52:19.767Z,2.67
2023-03-05T10:54:46.165Z,7.00
2023-03-05T10:57:12.504Z,5.65
2023-03-05T10:59:48.368Z,6.30
2023-03-05T11:02:14.883Z,6.78
2023-03-05T11:04:41.421Z,4.47
2023-03-05T11:07:32.587Z,4.35
2023-03-05T11:10:17.168Z,4.50
2023-03-05T11:12:43.781Z,3.38
2023-03-05T11:15:10.169Z,6.55
2023-03-05T11:17:44.800Z,3.88
2023-03-05T11:20:26.541Z,4.07
2023-03-05T11:23:08.630Z,3.30
2023-03-05T11:25:35.562Z,3.20
2023-03-05T11:28:03.572Z,3.15
2023-03-05T11:30:32.551Z,3.90
2023-03-05T11:33:20.285Z,5.38
2023-03-05T11:35:48.209Z,4.72
2023-03-05T11:38:18.799Z,4.88
2023-03-05T11:40:45.947Z,4.35
2023-03-05T11:43:21.045Z,6.93
2023-03-05T11:45:49.647Z,5.60
2023-03-05T11:48:19.724Z,5.38
2023-03-05T11:50:49.820Z,4.43
2023-03-05T11:53:22.625Z,2.83
2023-03-05T11:55:52.248Z,3.67
2023-03-05T11:58:36.052Z,3.72
2023-03-05T12:01:06.083Z,4.10
2023-03-05T12:03:35.583Z,6.25
2023-03-05T12:06:52.965Z,2.28
2023-03-05T12:09:42.217Z,2.00
2023-03-05T12:12:28.520Z,2.08
2023-03-05T12:15:09.832Z,2.15
2023-03-05T12:17:42.287Z,2.10
2023-03-05T12:20:20.607Z,2.95
2023-03-05T12:22:47.109Z,2.22
2023-03-05T12:25:25.009Z,2.00
2023-03-05T12:27:51.400Z,3.45
2023-03-05T12:30:49.988Z,4.47
2023-03-05T12:33:34.481Z,2.10
2023-03-05T12:36:33.892Z,2.10
2023-03-05T12:39:00.404Z,5.47
2023-03-05T12:41:31.004Z,2.97
2023-03-05T12:44:07.595Z,4.95
2023-03-05T12:46:38.563Z,4.85
2023-03-05T12:49:20.293Z,2.88
2023-03-05T12:51:48.261Z,3.85
2023-03-05T12:54:39.582Z,4.00
2023-03-05T12:57:13.808Z,7.00
2023-03-05T12:59:44.154Z,4.65
2023-03-05T13:02:21.002Z,5.93
2023-03-05T13:04:48.298Z,8.00
2023-03-05T13:07:17.262Z,3.67
2023-03-05T13:09:54.635Z,5.07
2023-03-05T13:12:21.778Z,3.00
2023-03-05T13:14:58.081Z,6.32
2023-03-05T13:17:26.713Z,4.13
2023-03-05T13:19:53.076Z,4.75
2023-03-05T13:22:19.428Z,6.70
2023-03-05T13:24:46.924Z,3.63
2023-03-05T13:27:24.416Z,6.55
2023-03-05T13:29:52.451Z,5.10
2023-03-05T13:32:25.624Z,6.10
2023-03-05T13:34:54.619Z,4.32
2023-03-05T13:37:24.087Z,4.57
2023-03-05T13:40:00.457Z,3.33
2023-03-05T13:42:28.557Z,4.45
2023-03-05T13:44:54.963Z,7.55
2023-03-05T13:47:23.078Z,3.63
2023-03-05T13:50:01.143Z,4.28
2023-03-05T13:52:30.717Z,4.72
2023-03-05T13:54:58.259Z,2.90
2023-03-05T13:57:50.546Z,2.88
2023-03-05T14:00:34.686Z,3.17
2023-03-05T14:03:10.005Z,3.33
2023-03-05T14:05:36.782Z,5.75
2023-03-05T14:08:03.406Z,4.45
2023-03-05T14:10:32.344Z,5.40
2023-03-05T14:13:00.106Z,3.53
2023-03-05T14:15:32.161Z,2.90
2023-03-05T14:18:10.692Z,3.70
2023-03-05T14:20:37.590Z,3.65
2023-03-05T14:23:32.683Z,2.55
2023-03-05T14:26:19.868Z,3.10
2023-03-05T14:29:04.583Z,4.57
2023-03-05T14:31:35.432Z,4.72
2023-03-05T14:34:04.255Z,2.97
2023-03-05T14:36:31.188Z,5.22
2023-03-05T14:38:58.024Z,5.65
2023-03-05T14:41:24.317Z,3.15
2023-03-05T14:43:50.795Z,3.55
2023-03-05T14:46:17.455Z,5.85
2023-03-05T14:48:43.912Z,4.38
2023-03-05T14:51:10.851Z,3.80
2023-03-05T14:53:46.299Z,2.50
2023-03-05T14:56:21.620Z,4.68
2023-03-05T14:58:47.979Z,5.55
2023-03-05T15:01:14.433Z,4.10
2023-03-05T15:03:41.451Z,6.05
2023-03-05T15:06:30.475Z,4.15
2023-03-05T15:08:56.864Z,7.50
2023-03-05T15:11:23.376Z,4.00
2023-03-05T15:13:52.557Z,5.63
2023-03-05T15:16:19.641Z,3.33
2023-03-05T15:18:46.365Z,2.78
2023-03-05T15:21:12.829Z,2.97
2023-03-05T15:23:39.401Z,2.00
2023-03-05T15:26:07.886Z,3.55
2023-03-05T15:28:36.446Z,5.22
2023-03-05T15:31:04.212Z,3.45
2023-03-05T15:33:30.953Z,3.20
2023-03-05T15:35:57.899Z,3.47
2023-03-05T15:38:24.957Z,2.85
2023-03-05T15:40:51.917Z,4.32
2023-03-05T15:43:19.064Z,3.92
2023-03-05T15:45:45.824Z,2.97
2023-03-05T15:48:12.372Z,4.47
2023-03-05T15:50:43.585Z,5.38
2023-03-05T15:53:12.017Z,6.10
2023-03-05T15:55:43.398Z,4.75
2023-03-05T15:58:09.890Z,3.55
2023-03-05T16:00:40.668Z,5.57
2023-03-05T16:03:07.069Z,5.65
2023-03-05T16:05:34.802Z,3.10
2023-03-05T16:08:01.511Z,3.45
2023-03-05T16:10:28.907Z,5.03
2023-03-05T16:12:58.850Z,4.00
2023-03-05T16:15:25.347Z,4.97
2023-03-05T16:17:54.704Z,7.00
2023-03-05T16:20:22.002Z,4.90
2023-03-05T16:22:49.245Z,6.75
2023-03-05T16:25:16.091Z,7.72
2023-03-05T16:27:42.439Z,9.35
2023-03-05T16:30:09.276Z,5.90
2023-03-05T16:32:37.549Z,5.80
2023-03-05T16:35:04.354Z,7.10
2023-03-05T16:37:30.774Z,8.18
2023-03-05T16:40:00.265Z,5.57
2023-03-05T16:42:26.815Z,3.92
2023-03-05T16:44:53.208Z,4.32
2023-03-05T16:47:19.872Z,4.07
2023-03-05T16:49:46.242Z,4.30
2023-03-05T16:52:18.688Z,4.00
2023-03-05T16:54:46.143Z,4.85
2023-03-05T16:57:12.569Z,5.35
2023-03-05T16:59:39.110Z,3.83
2023-03-05T17:02:05.870Z,6.70
2023-03-05T17:04:32.616Z,5.45
2023-03-05T17:06:59.029Z,7.70
2023-03-05T17:09:25.404Z,7.15
2023-03-05T17:11:52.360Z,7.78
2023-03-05T17:14:19.027Z,5.22
2023-03-05T17:16:45.573Z,4.30
2023-03-05T17:19:12.220Z,4.57
2023-03-05T17:21:41.878Z,5.05
2023-03-05T17:24:09.295Z,5.45
2023-03-05T17:26:36.458Z,7.38
2023-03-05T17:29:04.183Z,4.85
2023-03-05T17:31:30.608Z,4.32
2023-03-05T17:33:57.224Z,4.30
2023-03-05T17:36:24.182Z,5.68
2023-03-05T17:38:51.307Z,7.90
2023-03-05T17:41:18.505Z,5.25
2023-03-05T17:43:45.206Z,14.48
2023-03-05T17:46:12.464Z,18.15
2023-03-05T17:48:39.322Z,21.65
2023-03-05T17:51:10.603Z,17.05
2023-03-05T17:53:38.806Z,20.63
2023-03-05T17:56:10.225Z,24.50
2023-03-05T17:58:37.044Z,22.90
2023-03-05T18:01:04.560Z,18.40
2023-03-05T18:03:31.121Z,19.77
2023-03-05T18:05:57.556Z,19.63
2023-03-05T18:08:23.974Z,23.00
2023-03-05T18:10:50.372Z,22.95
2023-03-05T18:13:16.965Z,21.38
2023-03-05T18:15:47.516Z,19.88
2023-03-05T18:18:15.462Z,18.75
2023-03-05T18:20:41.890Z,18.77
2023-03-05T18:23:09.820Z,20.83
2023-03-05T18:25:36.249Z,16.52
2023-03-05T18:28:07.799Z,15.80
2023-03-05T18:30:34.517Z,16.05
2023-03-05T18:33:01.225Z,16.85
2023-03-05T18:35:29.190Z,17.63
2023-03-05T18:37:55.808Z,17.42
2023-03-05T18:40:23.804Z,16.00
2023-03-05T18:42:50.580Z,18.40
2023-03-05T18:45:18.613Z,13.60
2023-03-05T18:47:45.075Z,18.52
2023-03-05T18:50:14.712Z,20.08
2023-03-05T18:52:42.126Z,19.73
2023-03-05T18:55:11.047Z,23.50
2023-03-05T18:57:37.476Z,20.98
2023-03-05T19:00:04.315Z,26.40
2023-03-05T19:02:30.680Z,19.45
2023-03-05T19:04:59.254Z,18.17
2023-03-05T19:07:25.679Z,17.48
2023-03-05T19:10:03.329Z,19.52
2023-03-05T19:12:34.994Z,16.85
2023-03-05T19:15:02.371Z,21.00
2023-03-05T19:17:30.543Z,15.98
2023-03-05T19:19:58.800Z,19.63
2023-03-05T19:22:26.725Z,18.33
2023-03-05T19:24:53.842Z,19.02
2023-03-05T19:27:20.235Z,21.85
2023-03-05T19:29:46.710Z,18.25
2023-03-05T19:32:15.881Z,23.15
2023-03-05T19:34:42.482Z,21.65
2023-03-05T19:37:09.186Z,21.33
2023-03-05T19:39:35.620Z,20.20
2023-03-05T19:42:02.034Z,23.42
2023-03-05T19:44:28.625Z,22.48
2023-03-05T19:46:55.002Z,23.40
2023-03-05T19:49:21.440Z,22.52
2023-03-05T19:51:48.336Z,19.10
2023-03-05T19:54:16.224Z,23.08
2023-03-05T19:56:43.642Z,21.25
2023-03-05T19:59:10.490Z,26.10
2023-03-05T20:01:36.914Z,21.88
2023-03-05T20:04:04.469Z,25.05
2023-03-05T20:06:32.052Z,23.33
2023-03-05T20:08:59.032Z,20.77
2023-03-05T20:11:25.905Z,20.00
2023-03-05T20:13:53.422Z,23.10
2023-03-05T20:16:29.526Z,21.50
2023-03-05T20:18:56.871Z,21.60
2023-03-05T20:21:28.964Z,21.27
2023-03-05T20:26:25.648Z,21.25
2023-03-05T20:28:55.468Z,26.10
2023-03-05T20:31:23.956Z,19.67
2023-03-05T20:33:50.835Z,22.17
2023-03-05T20:36:17.449Z,20.38
2023-03-05T20:38:45.626Z,19.88
2023-03-05T20:41:14.968Z,20.33
2023-03-05T20:43:44.681Z,18.77
2023-03-05T20:46:32.235Z,21.25
2023-03-05T20:49:00.445Z,19.63
2023-03-05T20:51:28.906Z,20.60
2023-03-05T20:53:58.399Z,22.15
2023-03-05T20:56:26.837Z,22.23
2023-03-05T20:58:54.191Z,21.98
2023-03-05T21:01:20.723Z,20.98
2023-03-05T21:03:47.643Z,23.45
2023-03-05T21:06:14.082Z,21.80
2023-03-05T21:08:40.462Z,21.30
2023-03-05T21:11:08.261Z,24.75
2023-03-05T21:13:34.965Z,26.65
2023-03-05T21:16:05.679Z,24.25
2023-03-05T21:18:32.204Z,22.63
2023-03-05T21:20:58.581Z,25.30
2023-03-05T21:23:24.984Z,24.77
2023-03-05T21:25:51.394Z,25.10
2023-03-05T21:28:18.678Z,26.90
2023-03-05T21:30:51.958Z,28.40
2023-03-05T21:35:52.784Z,27.45
2023-03-05T21:38:25.517Z,27.13
2023-03-05T21:40:53.656Z,27.30
2023-03-05T21:43:21.902Z,25.85
2023-03-05T21:45:49.166Z,26.67
2023-03-05T21:48:15.847Z,26.50
2023-03-05T21:50:44.315Z,23.77
2023-03-05T21:53:15.235Z,27.00
2023-03-05T21:55:54.054Z,25.65
2023-03-05T21:58:20.475Z,25.23
2023-03-05T22:00:46.874Z,29.45
2023-03-05T22:03:13.270Z,25.13
2023-03-05T22:05:42.556Z,24.83
2023-03-05T22:08:08.964Z,24.63
2023-03-05T22:10:35.397Z,26.67
2023-03-05T22:13:02.590Z,29.15
2023-03-05T22:15:29.116Z,33.95
2023-03-05T22:17:55.509Z,29.52
2023-03-05T22:20:21.894Z,30.73
2023-03-05T22:22:48.463Z,30.63
2023-03-05T22:25:15.557Z,29.52
2023-03-05T22:27:43.053Z,28.88
2023-03-05T22:30:11.079Z,30.60
2023-03-05T22:32:37.932Z,31.52
2023-03-05T22:35:06.230Z,29.00
2023-03-05T22:37:33.224Z,33.95
2023-03-05T22:39:59.609Z,33.95
2023-03-05T22:42:25.988Z,34.47
2023-03-05T22:44:57.306Z,33.47
2023-03-05T22:47:24.788Z,24.57
2023-03-05T22:49:51.177Z,37.75
2023-03-05T22:52:17.546Z,31.75
2023-03-05T22:54:43.900Z,33.88
2023-03-05T22:57:10.307Z,36.40
2023-03-05T22:59:36.705Z,30.55
2023-03-05T23:02:03.133Z,34.05
2023-03-05T23:04:48.811Z,36.65
2023-03-05T23:07:26.128Z,34.53
2023-03-05T23:09:54.840Z,36.22
2023-03-05T23:12:21.904Z,37.40
2023-03-05T23:14:48.300Z,33.88
2023-03-05T23:17:14.761Z,37.85
2023-03-05T23:19:41.262Z,36.50
2023-03-05T23:22:08.660Z,36.75
2023-03-05T23:24:36.152Z,37.90
2023-03-05T23:27:05.322Z,36.80
2023-03-05T23:29:38.349Z,36.45
2023-03-05T23:32:05.096Z,36.10
2023-03-05T23:34:31.495Z,39.47
2023-03-05T23:37:00.085Z,37.90
2023-03-05T23:39:26.458Z,37.35
2023-03-05T23:41:52.826Z,40.47
2023-03-05T23:44:19.190Z,42.88
2023-03-05T23:46:45.594Z,38.35
2023-03-05T23:49:12.004Z,37.10
2023-03-05T23:51:38.403Z,39.72
2023-03-05T23:54:05.019Z,38.75
2023-03-05T23:56:32.051Z,40.45
2023-03-05T23:59:00.512Z,35.90
